createdAt,value
2018-09-28T00:00:52.719Z,1013.00
2018-09-28T00:01:52.712Z,1012.99
2018-09-28T00:02:52.653Z,1013.03
2018-09-28T00:03:52.641Z,1013.04
2018-09-28T00:04:52.630Z,1013.03
2018-09-28T00:05:52.623Z,1013.00
2018-09-28T00:06:52.621Z,1013.00
2018-09-28T00:07:52.597Z,1012.99
2018-09-28T00:08:52.601Z,1013.02
2018-09-28T00:09:52.578Z,1012.97
2018-09-28T00:10:52.575Z,1012.97
2018-09-28T00:11:52.584Z,1013.03
2018-09-28T00:12:52.544Z,1013.06
2018-09-28T00:13:52.547Z,1013.03
2018-09-28T00:14:52.527Z,1012.99
2018-09-28T00:15:52.508Z,1012.96
2018-09-28T00:16:52.497Z,1012.98
2018-09-28T00:17:52.502Z,1012.93
2018-09-28T00:18:52.498Z,1012.94
2018-09-28T00:19:52.475Z,1012.95
2018-09-28T00:20:52.453Z,1012.96
2018-09-28T00:21:52.446Z,1012.98
2018-09-28T00:22:52.443Z,1012.96
2018-09-28T00:23:52.437Z,1012.98
2018-09-28T00:24:52.409Z,1013.03
2018-09-28T00:25:52.446Z,1012.98
2018-09-28T00:26:52.390Z,1012.99
2018-09-28T00:27:52.391Z,1012.96
2018-09-28T00:28:52.372Z,1012.98
2018-09-28T00:29:52.354Z,1012.96
2018-09-28T00:30:52.345Z,1013.00
2018-09-28T00:31:52.340Z,1012.99
2018-09-28T00:32:52.340Z,1012.96
2018-09-28T00:33:52.314Z,1012.93
2018-09-28T00:34:52.307Z,1012.96
2018-09-28T00:35:52.318Z,1012.97
2018-09-28T00:36:52.287Z,1012.98
2018-09-28T00:37:52.278Z,1012.99
2018-09-28T00:38:52.262Z,1012.95
2018-09-28T00:39:52.246Z,1012.93
2018-09-28T00:40:52.238Z,1012.87
2018-09-28T00:41:52.238Z,1012.94
2018-09-28T00:42:52.225Z,1012.90
2018-09-28T00:43:52.205Z,1012.92
2018-09-28T00:44:52.190Z,1012.88
2018-09-28T00:45:52.183Z,1012.89
2018-09-28T00:46:52.169Z,1012.83
2018-09-28T00:47:52.176Z,1012.79
2018-09-28T00:48:52.144Z,1012.81
2018-09-28T00:49:52.160Z,1012.82
2018-09-28T00:50:52.123Z,1012.76
2018-09-28T00:51:52.150Z,1012.77
2018-09-28T00:52:52.124Z,1012.72
2018-09-28T00:53:52.090Z,1012.78
2018-09-28T00:54:52.084Z,1012.81
2018-09-28T00:55:52.073Z,1012.79
2018-09-28T00:56:52.056Z,1012.73
2018-09-28T00:57:52.057Z,1012.72
2018-09-28T00:58:52.034Z,1012.67
2018-09-28T00:59:52.025Z,1012.74
2018-09-28T01:00:52.019Z,1012.73
2018-09-28T01:01:52.008Z,1012.75
2018-09-28T01:02:52.015Z,1012.74
2018-09-28T01:03:51.984Z,1012.73
2018-09-28T01:04:51.990Z,1012.75
2018-09-28T01:05:51.959Z,1012.80
2018-09-28T01:06:59.030Z,1012.78
2018-09-28T01:07:51.948Z,1012.83
2018-09-28T01:08:51.934Z,1012.85
2018-09-28T01:09:51.913Z,1012.88
2018-09-28T01:10:51.901Z,1012.92
2018-09-28T01:11:51.891Z,1013.00
2018-09-28T01:12:51.902Z,1012.96
2018-09-28T01:13:51.870Z,1012.97
2018-09-28T01:14:51.906Z,1012.97
2018-09-28T01:15:51.847Z,1012.91
2018-09-28T01:16:51.839Z,1012.88
2018-09-28T01:17:51.852Z,1012.85
2018-09-28T01:18:51.815Z,1012.86
2018-09-28T01:19:51.827Z,1012.91
2018-09-28T01:20:51.793Z,1012.95
2018-09-28T01:21:51.781Z,1012.97
2018-09-28T01:22:51.769Z,1012.90
2018-09-28T01:23:51.772Z,1012.84
2018-09-28T01:24:51.747Z,1012.80
2018-09-28T01:25:51.761Z,1012.79
2018-09-28T01:26:51.726Z,1012.87
2018-09-28T01:27:51.728Z,1012.87
2018-09-28T01:28:51.718Z,1012.90
2018-09-28T01:29:51.694Z,1012.95
2018-09-28T01:30:51.687Z,1012.90
2018-09-28T01:31:51.674Z,1012.87
2018-09-28T01:32:51.666Z,1012.82
2018-09-28T01:33:51.659Z,1012.79
2018-09-28T01:34:51.642Z,1012.83
2018-09-28T01:35:51.625Z,1012.81
2018-09-28T01:36:51.616Z,1012.82
2018-09-28T01:37:51.606Z,1012.84
2018-09-28T01:38:51.621Z,1012.80
2018-09-28T01:39:51.582Z,1012.81
2018-09-28T01:40:51.582Z,1012.85
2018-09-28T01:41:51.564Z,1012.94
2018-09-28T01:42:51.549Z,1012.93
2018-09-28T01:43:51.555Z,1012.85
2018-09-28T01:44:51.525Z,1012.75
2018-09-28T01:45:51.515Z,1012.74
2018-09-28T01:46:51.506Z,1012.81
2018-09-28T01:47:51.493Z,1012.88
2018-09-28T01:48:51.502Z,1012.90
2018-09-28T01:49:51.471Z,1012.86
2018-09-28T01:50:51.477Z,1012.80
2018-09-28T01:51:51.448Z,1012.82
2018-09-28T01:52:51.437Z,1012.77
2018-09-28T01:53:51.441Z,1012.85
2018-09-28T01:54:51.423Z,1012.85
2018-09-28T01:55:51.409Z,1012.81
2018-09-28T01:56:51.393Z,1012.81
2018-09-28T01:57:51.386Z,1012.84
2018-09-28T01:58:51.387Z,1012.83
2018-09-28T01:59:51.366Z,1012.81
2018-09-28T02:00:51.349Z,1012.84
2018-09-28T02:01:51.415Z,1012.82
2018-09-28T02:02:51.328Z,1012.78
2018-09-28T02:03:51.345Z,1012.83
2018-09-28T02:04:51.306Z,1012.86
2018-09-28T02:05:51.294Z,1012.88
2018-09-28T02:06:51.283Z,1012.94
2018-09-28T02:07:51.280Z,1012.93
2018-09-28T02:08:51.273Z,1012.97
2018-09-28T02:09:51.249Z,1012.95
2018-09-28T02:10:51.245Z,1012.97
2018-09-28T02:11:51.226Z,1012.95
2018-09-28T02:12:51.221Z,1012.93
2018-09-28T02:13:51.257Z,1012.94
2018-09-28T02:14:51.202Z,1012.93
2018-09-28T02:15:51.260Z,1012.90
2018-09-28T02:16:51.175Z,1012.92
2018-09-28T02:17:51.161Z,1012.95
2018-09-28T02:18:51.162Z,1012.89
2018-09-28T02:19:51.144Z,1012.93
2018-09-28T02:20:51.131Z,1012.91
2018-09-28T02:21:51.117Z,1012.88
2018-09-28T02:22:51.106Z,1012.91
2018-09-28T02:23:51.107Z,1012.89
2018-09-28T02:24:51.100Z,1012.93
2018-09-28T02:25:51.092Z,1012.90
2018-09-28T02:26:51.075Z,1012.93
2018-09-28T02:27:51.054Z,1012.94
2018-09-28T02:28:51.052Z,1012.93
2018-09-28T02:29:51.029Z,1012.90
2018-09-28T02:30:51.018Z,1012.90
2018-09-28T02:31:51.017Z,1012.90
2018-09-28T02:32:50.999Z,1012.93
2018-09-28T02:33:50.997Z,1012.95
2018-09-28T02:34:50.973Z,1012.97
2018-09-28T02:35:50.964Z,1012.97
2018-09-28T02:36:50.963Z,1012.88
2018-09-28T02:37:50.960Z,1012.92
2018-09-28T02:38:50.949Z,1012.87
2018-09-28T02:39:50.941Z,1012.86
2018-09-28T02:40:50.907Z,1012.82
2018-09-28T02:41:50.897Z,1012.80
2018-09-28T02:42:50.889Z,1012.86
2018-09-28T02:43:50.887Z,1012.84
2018-09-28T02:44:50.872Z,1012.84
2018-09-28T02:45:50.852Z,1012.90
2018-09-28T02:46:50.841Z,1012.86
2018-09-28T02:47:50.864Z,1012.89
2018-09-28T02:48:50.831Z,1012.82
2018-09-28T02:49:50.815Z,1012.84
2018-09-28T02:50:50.802Z,1012.82
2018-09-28T02:51:50.786Z,1012.83
2018-09-28T02:52:50.778Z,1012.89
2018-09-28T02:53:50.810Z,1012.86
2018-09-28T02:54:50.755Z,1012.83
2018-09-28T02:55:50.742Z,1012.86
2018-09-28T02:56:50.762Z,1012.80
2018-09-28T02:57:50.719Z,1012.78
2018-09-28T02:58:50.708Z,1012.75
2018-09-28T02:59:50.721Z,1012.72
2018-09-28T03:00:50.691Z,1012.69
2018-09-28T03:01:50.681Z,1012.72
2018-09-28T03:02:50.665Z,1012.72
2018-09-28T03:03:50.654Z,1012.71
2018-09-28T03:04:50.655Z,1012.71
2018-09-28T03:05:50.641Z,1012.73
2018-09-28T03:06:50.626Z,1012.78
2018-09-28T03:07:50.626Z,1012.75
2018-09-28T03:08:50.599Z,1012.76
2018-09-28T03:09:50.601Z,1012.80
2018-09-28T03:10:50.577Z,1012.84
2018-09-28T03:11:50.571Z,1012.82
2018-09-28T03:12:50.555Z,1012.84
2018-09-28T03:13:50.562Z,1012.83
2018-09-28T03:14:50.548Z,1012.87
2018-09-28T03:15:50.526Z,1012.94
2018-09-28T03:16:50.530Z,1013.01
2018-09-28T03:17:50.501Z,1013.02
2018-09-28T03:18:50.501Z,1013.06
2018-09-28T03:19:50.495Z,1013.05
2018-09-28T03:20:50.468Z,1013.05
2018-09-28T03:21:50.466Z,1013.11
2018-09-28T03:22:50.463Z,1013.11
2018-09-28T03:23:50.435Z,1013.13
2018-09-28T03:24:50.437Z,1013.14
2018-09-28T03:25:50.416Z,1013.15
2018-09-28T03:26:50.405Z,1013.16
2018-09-28T03:27:50.398Z,1013.17
2018-09-28T03:28:50.384Z,1013.20
2018-09-28T03:29:50.381Z,1013.19
2018-09-28T03:30:50.356Z,1013.22
2018-09-28T03:31:50.348Z,1013.20
2018-09-28T03:32:50.337Z,1013.23
2018-09-28T03:33:50.329Z,1013.23
2018-09-28T03:34:50.328Z,1013.23
2018-09-28T03:35:50.315Z,1013.23
2018-09-28T03:36:50.305Z,1013.23
2018-09-28T03:37:50.281Z,1013.24
2018-09-28T03:38:50.280Z,1013.23
2018-09-28T03:39:50.269Z,1013.20
2018-09-28T03:40:50.250Z,1013.17
2018-09-28T03:41:50.242Z,1013.20
2018-09-28T03:42:50.226Z,1013.19
2018-09-28T03:43:50.221Z,1013.18
2018-09-28T03:44:50.224Z,1013.19
2018-09-28T03:45:50.213Z,1013.20
2018-09-28T03:46:50.187Z,1013.22
2018-09-28T03:47:50.172Z,1013.19
2018-09-28T03:48:50.162Z,1013.20
2018-09-28T03:49:50.166Z,1013.21
2018-09-28T03:50:50.138Z,1013.18
2018-09-28T03:51:50.141Z,1013.15
2018-09-28T03:52:50.114Z,1013.14
2018-09-28T03:53:50.105Z,1013.16
2018-09-28T03:54:50.106Z,1013.15
2018-09-28T03:55:50.083Z,1013.16
2018-09-28T03:56:50.076Z,1013.16
2018-09-28T03:57:50.060Z,1013.17
2018-09-28T03:58:50.053Z,1013.17
2018-09-28T03:59:50.062Z,1013.17
2018-09-28T04:00:50.028Z,1013.20
2018-09-28T04:01:50.016Z,1013.19
2018-09-28T04:02:50.068Z,1013.18
2018-09-28T04:03:50.000Z,1013.16
2018-09-28T04:04:49.998Z,1013.16
2018-09-28T04:05:49.974Z,1013.18
2018-09-28T04:06:49.970Z,1013.20
2018-09-28T04:07:49.968Z,1013.21
2018-09-28T04:08:49.957Z,1013.22
2018-09-28T04:09:49.938Z,1013.18
2018-09-28T04:10:49.930Z,1013.19
2018-09-28T04:11:49.922Z,1013.21
2018-09-28T04:12:49.916Z,1013.21
2018-09-28T04:13:49.892Z,1013.18
2018-09-28T04:14:49.888Z,1013.19
2018-09-28T04:15:49.884Z,1013.20
2018-09-28T04:16:49.850Z,1013.28
2018-09-28T04:17:49.844Z,1013.25
2018-09-28T04:18:49.834Z,1013.23
2018-09-28T04:19:49.829Z,1013.22
2018-09-28T04:20:49.809Z,1013.26
2018-09-28T04:21:49.816Z,1013.27
2018-09-28T04:22:49.785Z,1013.25
2018-09-28T04:23:49.773Z,1013.30
2018-09-28T04:24:49.776Z,1013.26
2018-09-28T04:25:49.753Z,1013.32
2018-09-28T04:26:49.763Z,1013.28
2018-09-28T04:27:49.728Z,1013.34
2018-09-28T04:28:49.717Z,1013.33
2018-09-28T04:29:49.734Z,1013.27
2018-09-28T04:30:49.700Z,1013.26
2018-09-28T04:31:49.702Z,1013.29
2018-09-28T04:32:49.681Z,1013.26
2018-09-28T04:33:49.687Z,1013.30
2018-09-28T04:34:49.662Z,1013.28
2018-09-28T04:35:49.659Z,1013.31
2018-09-28T04:36:49.631Z,1013.32
2018-09-28T04:37:49.618Z,1013.32
2018-09-28T04:38:49.617Z,1013.31
2018-09-28T04:39:49.596Z,1013.34
2018-09-28T04:40:49.639Z,1013.35
2018-09-28T04:41:49.574Z,1013.35
2018-09-28T04:42:49.563Z,1013.40
2018-09-28T04:43:49.553Z,1013.43
2018-09-28T04:44:49.547Z,1013.48
2018-09-28T04:45:49.543Z,1013.50
2018-09-28T04:46:49.524Z,1013.48
2018-09-28T04:47:49.512Z,1013.48
2018-09-28T04:48:49.504Z,1013.51
2018-09-28T04:49:49.487Z,1013.51
2018-09-28T04:50:49.496Z,1013.53
2018-09-28T04:51:49.468Z,1013.54
2018-09-28T04:52:49.457Z,1013.57
2018-09-28T04:53:49.443Z,1013.57
2018-09-28T04:54:49.483Z,1013.62
2018-09-28T04:55:49.433Z,1013.63
2018-09-28T04:56:49.414Z,1013.60
2018-09-28T04:57:49.397Z,1013.63
2018-09-28T04:58:49.413Z,1013.64
2018-09-28T04:59:49.374Z,1013.66
2018-09-28T05:00:49.378Z,1013.71
2018-09-28T05:01:49.357Z,1013.75
2018-09-28T05:02:49.344Z,1013.75
2018-09-28T05:03:49.389Z,1013.75
2018-09-28T05:04:49.321Z,1013.77
2018-09-28T05:05:49.322Z,1013.81
2018-09-28T05:06:49.300Z,1013.77
2018-09-28T05:07:49.287Z,1013.82
2018-09-28T05:08:49.276Z,1013.77
2018-09-28T05:09:49.269Z,1013.81
2018-09-28T05:10:49.266Z,1013.84
2018-09-28T05:11:49.253Z,1013.81
2018-09-28T05:12:49.232Z,1013.87
2018-09-28T05:13:49.239Z,1013.85
2018-09-28T05:14:49.211Z,1013.89
2018-09-28T05:15:49.214Z,1013.83
2018-09-28T05:16:49.192Z,1013.90
2018-09-28T05:17:49.193Z,1013.94
2018-09-28T05:18:49.174Z,1013.92
2018-09-28T05:19:49.155Z,1013.93
2018-09-28T05:20:49.156Z,1013.90
2018-09-28T05:21:49.139Z,1013.92
2018-09-28T05:22:49.128Z,1013.93
2018-09-28T05:23:49.115Z,1014.00
2018-09-28T05:24:49.101Z,1014.00
2018-09-28T05:25:49.101Z,1014.03
2018-09-28T05:26:49.078Z,1013.99
2018-09-28T05:27:49.094Z,1014.04
2018-09-28T05:28:49.058Z,1014.05
2018-09-28T05:29:49.045Z,1014.07
2018-09-28T05:30:53.971Z,1014.10
2018-09-28T05:31:49.114Z,1014.11
2018-09-28T05:32:49.144Z,1014.14
2018-09-28T05:33:49.003Z,1014.10
2018-09-28T05:34:48.992Z,1014.06
2018-09-28T05:35:48.995Z,1014.08
2018-09-28T05:36:48.970Z,1014.05
2018-09-28T05:37:48.961Z,1014.07
2018-09-28T05:38:48.946Z,1014.07
2018-09-28T05:39:48.940Z,1014.10
2018-09-28T05:40:48.953Z,1014.06
2018-09-28T05:41:48.913Z,1014.02
2018-09-28T05:42:48.903Z,1014.04
2018-09-28T05:43:48.947Z,1014.05
2018-09-28T05:44:48.883Z,1014.11
2018-09-28T05:45:48.881Z,1014.15
2018-09-28T05:46:48.875Z,1014.15
2018-09-28T05:47:48.871Z,1014.19
2018-09-28T05:48:48.843Z,1014.25
2018-09-28T05:49:48.833Z,1014.32
2018-09-28T05:50:48.824Z,1014.35
2018-09-28T05:51:48.802Z,1014.32
2018-09-28T05:52:48.791Z,1014.35
2018-09-28T05:53:48.781Z,1014.40
2018-09-28T05:54:48.769Z,1014.44
2018-09-28T05:55:48.774Z,1014.45
2018-09-28T05:56:48.752Z,1014.47
2018-09-28T05:57:48.740Z,1014.45
2018-09-28T05:58:48.726Z,1014.48
2018-09-28T05:59:48.714Z,1014.48
2018-09-28T06:00:48.736Z,1014.50
2018-09-28T06:01:48.696Z,1014.53
2018-09-28T06:02:48.682Z,1014.58
2018-09-28T06:03:48.679Z,1014.59
2018-09-28T06:04:48.676Z,1014.60
2018-09-28T06:05:48.648Z,1014.65
2018-09-28T06:06:48.676Z,1014.65
2018-09-28T06:07:48.635Z,1014.70
2018-09-28T06:08:48.617Z,1014.71
2018-09-28T06:09:48.711Z,1014.75
2018-09-28T06:10:48.616Z,1014.70
2018-09-28T06:11:48.613Z,1014.71
2018-09-28T06:12:48.580Z,1014.76
2018-09-28T06:13:48.588Z,1014.81
2018-09-28T06:14:48.552Z,1014.76
2018-09-28T06:15:48.539Z,1014.77
2018-09-28T06:16:48.549Z,1014.76
2018-09-28T06:17:48.548Z,1014.75
2018-09-28T06:18:48.557Z,1014.83
2018-09-28T06:19:48.506Z,1014.78
2018-09-28T06:20:48.485Z,1014.78
2018-09-28T06:21:48.485Z,1014.79
2018-09-28T06:22:48.459Z,1014.78
2018-09-28T06:23:48.449Z,1014.74
2018-09-28T06:24:48.441Z,1014.76
2018-09-28T06:25:48.498Z,1014.74
2018-09-28T06:26:48.446Z,1014.71
2018-09-28T06:27:48.409Z,1014.73
2018-09-28T06:28:48.394Z,1014.72
2018-09-28T06:29:48.435Z,1014.75
2018-09-28T06:30:48.377Z,1014.74
2018-09-28T06:31:48.374Z,1014.76
2018-09-28T06:32:48.362Z,1014.76
2018-09-28T06:33:48.342Z,1014.80
2018-09-28T06:34:48.327Z,1014.84
2018-09-28T06:35:48.324Z,1014.95
2018-09-28T06:36:48.345Z,1014.97
2018-09-28T06:37:48.303Z,1014.94
2018-09-28T06:38:48.288Z,1015.03
2018-09-28T06:39:48.274Z,1015.01
2018-09-28T06:40:48.262Z,1015.05
2018-09-28T06:41:48.323Z,1015.06
2018-09-28T06:42:48.240Z,1015.07
2018-09-28T06:43:48.232Z,1015.08
2018-09-28T06:44:48.280Z,1015.11
2018-09-28T06:45:48.208Z,1015.12
2018-09-28T06:46:48.209Z,1015.14
2018-09-28T06:47:48.246Z,1015.21
2018-09-28T06:48:48.178Z,1015.27
2018-09-28T06:49:48.167Z,1015.26
2018-09-28T06:50:48.152Z,1015.26
2018-09-28T06:51:48.185Z,1015.22
2018-09-28T06:52:48.131Z,1015.22
2018-09-28T06:53:48.148Z,1015.19
2018-09-28T06:54:48.110Z,1015.21
2018-09-28T06:55:48.099Z,1015.17
2018-09-28T06:56:48.099Z,1015.22
2018-09-28T06:57:48.076Z,1015.27
2018-09-28T06:58:48.066Z,1015.30
2018-09-28T06:59:48.137Z,1015.29
2018-09-28T07:00:48.043Z,1015.34
2018-09-28T07:01:48.065Z,1015.33
2018-09-28T07:02:48.025Z,1015.33
2018-09-28T07:03:48.009Z,1015.39
2018-09-28T07:04:48.000Z,1015.36
2018-09-28T07:05:48.036Z,1015.36
2018-09-28T07:06:47.976Z,1015.39
2018-09-28T07:07:47.976Z,1015.38
2018-09-28T07:08:47.960Z,1015.42
2018-09-28T07:09:47.944Z,1015.44
2018-09-28T07:10:47.931Z,1015.49
2018-09-28T07:11:47.936Z,1015.51
2018-09-28T07:12:47.939Z,1015.55
2018-09-28T07:13:47.907Z,1015.56
2018-09-28T07:14:47.914Z,1015.58
2018-09-28T07:15:47.878Z,1015.61
2018-09-28T07:16:47.926Z,1015.61
2018-09-28T07:17:47.931Z,1015.64
2018-09-28T07:18:47.847Z,1015.68
2018-09-28T07:19:47.837Z,1015.69
2018-09-28T07:20:47.823Z,1015.70
2018-09-28T07:21:47.812Z,1015.73
2018-09-28T07:22:47.835Z,1015.79
2018-09-28T07:23:47.848Z,1015.78
2018-09-28T07:24:47.875Z,1015.80
2018-09-28T07:25:47.782Z,1015.85
2018-09-28T07:26:47.771Z,1015.84
2018-09-28T07:27:47.767Z,1015.85
2018-09-28T07:28:47.735Z,1015.86
2018-09-28T07:29:47.782Z,1015.88
2018-09-28T07:30:47.715Z,1015.87
2018-09-28T07:31:47.713Z,1015.88
2018-09-28T07:32:47.708Z,1015.90
2018-09-28T07:33:47.684Z,1015.94
2018-09-28T07:34:47.669Z,1015.94
2018-09-28T07:35:47.738Z,1015.89
2018-09-28T07:36:47.739Z,1015.89
2018-09-28T07:37:47.663Z,1015.89
2018-09-28T07:38:47.626Z,1015.94
2018-09-28T07:39:47.614Z,1016.01
2018-09-28T07:40:47.623Z,1016.06
2018-09-28T07:41:47.621Z,1016.04
2018-09-28T07:42:47.622Z,1016.08
2018-09-28T07:43:47.583Z,1016.09
2018-09-28T07:44:47.560Z,1016.06
2018-09-28T07:45:47.569Z,1016.05
2018-09-28T07:46:47.546Z,1016.08
2018-09-28T07:47:47.559Z,1016.07
2018-09-28T07:48:47.558Z,1016.07
2018-09-28T07:49:47.508Z,1016.08
2018-09-28T07:50:47.496Z,1016.10
2018-09-28T07:51:47.483Z,1016.16
2018-09-28T07:52:47.476Z,1016.19
2018-09-28T07:53:47.480Z,1016.17
2018-09-28T07:54:47.462Z,1016.19
2018-09-28T07:55:47.457Z,1016.19
2018-09-28T07:56:47.427Z,1016.21
2018-09-28T07:57:47.416Z,1016.18
2018-09-28T07:58:47.463Z,1016.19
2018-09-28T07:59:47.393Z,1016.20
2018-09-28T08:00:47.390Z,1016.19
2018-09-28T08:01:47.373Z,1016.18
2018-09-28T08:02:47.361Z,1016.20
2018-09-28T08:03:47.402Z,1016.22
2018-09-28T08:04:47.338Z,1016.26
2018-09-28T08:05:47.326Z,1016.23
2018-09-28T08:06:47.320Z,1016.24
2018-09-28T08:07:47.308Z,1016.26
2018-09-28T08:08:47.321Z,1016.31
2018-09-28T08:09:47.285Z,1016.32
2018-09-28T08:10:47.274Z,1016.32
2018-09-28T08:11:47.282Z,1016.36
2018-09-28T08:12:47.250Z,1016.41
2018-09-28T08:13:47.256Z,1016.42
2018-09-28T08:14:47.228Z,1016.45
2018-09-28T08:15:47.218Z,1016.44
2018-09-28T08:16:47.209Z,1016.44
2018-09-28T08:17:47.208Z,1016.42
2018-09-28T08:18:47.245Z,1016.43
2018-09-28T08:19:47.173Z,1016.45
2018-09-28T08:20:47.162Z,1016.46
2018-09-28T08:21:47.168Z,1016.38
2018-09-28T08:22:47.140Z,1016.40
2018-09-28T08:23:47.146Z,1016.43
2018-09-28T08:24:47.190Z,1016.39
2018-09-28T08:25:47.108Z,1016.47
2018-09-28T08:26:47.096Z,1016.48
2018-09-28T08:27:47.089Z,1016.47
2018-09-28T08:28:47.085Z,1016.49
2018-09-28T08:29:47.080Z,1016.46
2018-09-28T08:30:47.057Z,1016.54
2018-09-28T08:31:47.069Z,1016.55
2018-09-28T08:32:47.042Z,1016.55
2018-09-28T08:33:47.035Z,1016.53
2018-09-28T08:34:47.014Z,1016.53
2018-09-28T08:35:46.998Z,1016.54
2018-09-28T08:36:47.018Z,1016.55
2018-09-28T08:37:46.975Z,1016.57
2018-09-28T08:38:46.981Z,1016.59
2018-09-28T08:39:46.952Z,1016.58
2018-09-28T08:40:46.954Z,1016.59
2018-09-28T08:41:46.955Z,1016.55
2018-09-28T08:42:46.922Z,1016.57
2018-09-28T08:43:47.075Z,1016.58
2018-09-28T08:44:46.924Z,1016.57
2018-09-28T08:45:46.886Z,1016.57
2018-09-28T08:46:46.874Z,1016.56
2018-09-28T08:47:46.871Z,1016.59
2018-09-28T08:48:46.879Z,1016.58
2018-09-28T08:49:46.879Z,1016.58
2018-09-28T08:50:46.839Z,1016.61
2018-09-28T08:51:46.821Z,1016.71
2018-09-28T08:52:46.834Z,1016.76
2018-09-28T08:53:46.813Z,1016.72
2018-09-28T08:54:46.818Z,1016.74
2018-09-28T08:55:53.800Z,1016.76
2018-09-28T08:56:46.769Z,1016.77
2018-09-28T08:57:46.755Z,1016.79
2018-09-28T08:58:46.755Z,1016.88
2018-09-28T08:59:46.734Z,1016.94
2018-09-28T09:00:46.720Z,1016.95
2018-09-28T09:01:46.710Z,1016.96
2018-09-28T09:02:46.699Z,1016.93
2018-09-28T09:03:46.705Z,1016.99
2018-09-28T09:04:46.677Z,1017.03
2018-09-28T09:05:46.686Z,1017.03
2018-09-28T09:06:46.654Z,1017.05
2018-09-28T09:07:46.648Z,1017.10
2018-09-28T09:08:46.652Z,1017.09
2018-09-28T09:09:46.629Z,1017.12
2018-09-28T09:10:46.634Z,1017.15
2018-09-28T09:11:46.599Z,1017.18
2018-09-28T09:12:46.590Z,1017.17
2018-09-28T09:13:46.581Z,1017.19
2018-09-28T09:14:46.579Z,1017.19
2018-09-28T09:15:46.558Z,1017.22
2018-09-28T09:16:46.546Z,1017.19
2018-09-28T09:17:46.613Z,1017.19
2018-09-28T09:18:46.523Z,1017.16
2018-09-28T09:19:46.530Z,1017.20
2018-09-28T09:20:46.500Z,1017.16
2018-09-28T09:21:46.493Z,1017.18
2018-09-28T09:22:46.479Z,1017.24
2018-09-28T09:23:46.496Z,1017.26
2018-09-28T09:24:46.468Z,1017.21
2018-09-28T09:25:46.449Z,1017.27
2018-09-28T09:26:46.449Z,1017.28
2018-09-28T09:27:46.450Z,1017.24
2018-09-28T09:28:46.412Z,1017.23
2018-09-28T09:29:46.421Z,1017.25
2018-09-28T09:30:46.400Z,1017.29
2018-09-28T09:31:46.380Z,1017.29
2018-09-28T09:32:46.370Z,1017.28
2018-09-28T09:33:46.358Z,1017.31
2018-09-28T09:34:46.361Z,1017.29
2018-09-28T09:35:46.335Z,1017.35
2018-09-28T09:36:46.326Z,1017.32
2018-09-28T09:37:46.314Z,1017.37
2018-09-28T09:38:46.303Z,1017.33
2018-09-28T09:39:46.309Z,1017.37
2018-09-28T09:40:46.284Z,1017.36
2018-09-28T09:41:46.278Z,1017.30
2018-09-28T09:42:46.270Z,1017.29
2018-09-28T09:43:46.250Z,1017.34
2018-09-28T09:44:46.253Z,1017.31
2018-09-28T09:45:46.228Z,1017.31
2018-09-28T09:46:46.238Z,1017.32
2018-09-28T09:47:46.209Z,1017.34
2018-09-28T09:48:46.195Z,1017.34
2018-09-28T09:49:46.321Z,1017.34
2018-09-28T09:50:46.170Z,1017.31
2018-09-28T09:51:46.202Z,1017.32
2018-09-28T09:52:46.149Z,1017.33
2018-09-28T09:53:46.150Z,1017.34
2018-09-28T09:54:46.144Z,1017.36
2018-09-28T09:55:46.121Z,1017.36
2018-09-28T09:56:46.114Z,1017.36
2018-09-28T09:57:46.165Z,1017.42
2018-09-28T09:58:46.118Z,1017.38
2018-09-28T09:59:46.136Z,1017.41
2018-09-28T10:00:46.062Z,1017.42
2018-09-28T10:01:46.119Z,1017.44
2018-09-28T10:02:46.039Z,1017.44
2018-09-28T10:03:46.028Z,1017.39
2018-09-28T10:04:46.030Z,1017.41
2018-09-28T10:05:46.006Z,1017.43
2018-09-28T10:06:46.029Z,1017.42
2018-09-28T10:07:45.999Z,1017.39
2018-09-28T10:08:45.985Z,1017.40
2018-09-28T10:09:46.083Z,1017.39
2018-09-28T10:10:45.951Z,1017.39
2018-09-28T10:11:45.957Z,1017.48
2018-09-28T10:12:45.941Z,1017.41
2018-09-28T10:13:45.921Z,1017.43
2018-09-28T10:14:45.921Z,1017.40
2018-09-28T10:15:45.896Z,1017.40
2018-09-28T10:16:45.916Z,1017.41
2018-09-28T10:17:45.874Z,1017.42
2018-09-28T10:18:45.863Z,1017.43
2018-09-28T10:19:45.996Z,1017.44
2018-09-28T10:20:45.843Z,1017.45
2018-09-28T10:21:45.847Z,1017.49
2018-09-28T10:22:45.832Z,1017.45
2018-09-28T10:23:45.816Z,1017.49
2018-09-28T10:24:45.810Z,1017.48
2018-09-28T10:25:45.786Z,1017.44
2018-09-28T10:26:45.779Z,1017.48
2018-09-28T10:27:45.818Z,1017.52
2018-09-28T10:28:45.827Z,1017.52
2018-09-28T10:29:45.758Z,1017.58
2018-09-28T10:30:45.734Z,1017.55
2018-09-28T10:31:45.721Z,1017.57
2018-09-28T10:32:45.712Z,1017.57
2018-09-28T10:33:45.698Z,1017.57
2018-09-28T10:34:45.777Z,1017.57
2018-09-28T10:35:45.700Z,1017.59
2018-09-28T10:36:45.664Z,1017.61
2018-09-28T10:37:45.656Z,1017.61
2018-09-28T10:38:45.650Z,1017.62
2018-09-28T10:39:45.735Z,1017.62
2018-09-28T10:40:45.685Z,1017.61
2018-09-28T10:41:45.614Z,1017.61
2018-09-28T10:42:45.601Z,1017.63
2018-09-28T10:43:45.597Z,1017.61
2018-09-28T10:44:45.577Z,1017.61
2018-09-28T10:45:45.678Z,1017.59
2018-09-28T10:46:45.694Z,1017.61
2018-09-28T10:47:45.581Z,1017.65
2018-09-28T10:48:45.536Z,1017.65
2018-09-28T10:49:45.522Z,1017.67
2018-09-28T10:50:45.551Z,1017.67
2018-09-28T10:51:45.598Z,1017.64
2018-09-28T10:52:45.613Z,1017.67
2018-09-28T10:53:45.480Z,1017.62
2018-09-28T10:54:45.470Z,1017.70
2018-09-28T10:55:45.470Z,1017.69
2018-09-28T10:56:45.444Z,1017.69
2018-09-28T10:57:45.435Z,1017.65
2018-09-28T10:58:45.473Z,1017.67
2018-09-28T10:59:45.411Z,1017.69
2018-09-28T11:00:45.414Z,1017.66
2018-09-28T11:01:45.392Z,1017.62
2018-09-28T11:02:45.400Z,1017.61
2018-09-28T11:03:45.452Z,1017.63
2018-09-28T11:04:45.483Z,1017.69
2018-09-28T11:05:45.356Z,1017.65
2018-09-28T11:06:45.335Z,1017.66
2018-09-28T11:07:45.323Z,1017.61
2018-09-28T11:08:45.315Z,1017.58
2018-09-28T11:09:45.337Z,1017.59
2018-09-28T11:10:45.359Z,1017.56
2018-09-28T11:11:45.279Z,1017.58
2018-09-28T11:12:45.269Z,1017.61
2018-09-28T11:13:45.260Z,1017.59
2018-09-28T11:14:45.248Z,1017.59
2018-09-28T11:15:45.276Z,1017.56
2018-09-28T11:16:45.224Z,1017.57
2018-09-28T11:17:45.213Z,1017.57
2018-09-28T11:18:45.260Z,1017.59
2018-09-28T11:19:45.193Z,1017.57
2018-09-28T11:20:45.197Z,1017.56
2018-09-28T11:21:45.229Z,1017.57
2018-09-28T11:22:45.161Z,1017.51
2018-09-28T11:23:45.149Z,1017.55
2018-09-28T11:24:45.138Z,1017.54
2018-09-28T11:25:45.166Z,1017.55
2018-09-28T11:26:45.113Z,1017.54
2018-09-28T11:27:45.232Z,1017.54
2018-09-28T11:28:45.093Z,1017.52
2018-09-28T11:29:45.088Z,1017.52
2018-09-28T11:30:45.084Z,1017.51
2018-09-28T11:31:45.058Z,1017.54
2018-09-28T11:32:45.046Z,1017.53
2018-09-28T11:33:45.064Z,1017.51
2018-09-28T11:34:45.030Z,1017.51
2018-09-28T11:35:45.051Z,1017.55
2018-09-28T11:36:45.004Z,1017.54
2018-09-28T11:37:45.064Z,1017.54
2018-09-28T11:38:44.982Z,1017.50
2018-09-28T11:39:44.995Z,1017.50
2018-09-28T11:40:44.972Z,1017.52
2018-09-28T11:41:44.952Z,1017.55
2018-09-28T11:42:44.938Z,1017.53
2018-09-28T11:43:44.950Z,1017.56
2018-09-28T11:44:44.923Z,1017.57
2018-09-28T11:45:45.000Z,1017.52
2018-09-28T11:46:44.893Z,1017.59
2018-09-28T11:47:44.884Z,1017.60
2018-09-28T11:48:44.894Z,1017.55
2018-09-28T11:49:44.869Z,1017.58
2018-09-28T11:50:44.851Z,1017.57
2018-09-28T11:51:44.896Z,1017.58
2018-09-28T11:52:44.831Z,1017.52
2018-09-28T11:53:44.818Z,1017.52
2018-09-28T11:54:44.814Z,1017.56
2018-09-28T11:55:44.804Z,1017.54
2018-09-28T11:56:44.802Z,1017.55
2018-09-28T11:57:44.843Z,1017.51
2018-09-28T11:58:44.791Z,1017.56
2018-09-28T11:59:44.749Z,1017.51
2018-09-28T12:00:44.739Z,1017.45
2018-09-28T12:01:44.750Z,1017.46
2018-09-28T12:02:44.718Z,1017.46
2018-09-28T12:03:44.795Z,1017.47
2018-09-28T12:04:44.696Z,1017.48
2018-09-28T12:05:44.685Z,1017.49